createdAt,value
2023-11-17T00:01:18.430Z,99107.28
2023-11-17T00:03:53.475Z,99104.09
2023-11-17T00:06:23.177Z,99085.28
2023-11-17T00:08:52.645Z,99095.03
2023-11-17T00:11:21.427Z,99089.06
2023-11-17T00:13:51.248Z,99086.59
2023-11-17T00:16:21.124Z,99078.31
2023-11-17T00:18:53.443Z,99087.56
2023-11-17T00:21:22.975Z,99076.81
2023-11-17T00:23:51.813Z,99090.38
2023-11-17T00:26:21.717Z,99084.72
2023-11-17T00:28:56.296Z,99083.00
2023-11-17T00:31:26.461Z,99080.47
2023-11-17T00:33:56.846Z,99078.75
2023-11-17T00:36:25.626Z,99070.91
2023-11-17T00:38:54.840Z,99072.91
2023-11-17T00:41:30.276Z,99061.22
2023-11-17T00:44:00.259Z,99061.47
2023-11-17T00:46:31.609Z,99057.47
2023-11-17T00:49:06.235Z,99054.09
2023-11-17T00:51:35.800Z,99038.41
2023-11-17T00:54:05.725Z,99038.59
2023-11-17T00:56:35.100Z,99033.25
2023-11-17T00:59:04.813Z,99037.31
2023-11-17T01:01:35.827Z,99040.87
2023-11-17T01:04:06.788Z,99040.50
2023-11-17T01:06:35.795Z,99034.88
2023-11-17T01:09:05.536Z,99026.66
2023-11-17T01:11:34.814Z,99023.66
2023-11-17T01:14:09.767Z,99018.50
2023-11-17T01:16:39.155Z,99015.53
2023-11-17T01:19:09.541Z,99015.28
2023-11-17T01:21:39.010Z,99007.06
2023-11-17T01:24:10.213Z,99007.22
2023-11-17T01:26:39.864Z,99008.28
2023-11-17T01:29:10.142Z,98990.38
2023-11-17T01:31:38.918Z,99001.72
2023-11-17T01:34:09.312Z,98979.59
2023-11-17T01:36:38.287Z,98990.41
2023-11-17T01:39:10.374Z,98974.69
2023-11-17T01:41:39.776Z,98976.56
2023-11-17T01:44:08.654Z,98976.31
2023-11-17T01:46:37.692Z,98963.41
2023-11-17T01:49:07.263Z,98961.47
2023-11-17T01:51:39.938Z,98955.84
2023-11-17T01:54:10.759Z,98959.31
2023-11-17T01:56:41.158Z,98958.97
2023-11-17T01:59:10.528Z,98956.09
2023-11-17T02:01:40.780Z,98955.47
2023-11-17T02:04:11.227Z,98951.09
2023-11-17T02:06:50.240Z,98937.59
2023-11-17T02:09:31.826Z,98952.34
2023-11-17T02:12:19.312Z,98948.72
2023-11-17T02:14:51.392Z,98940.75
2023-11-17T02:17:29.729Z,98933.28
2023-11-17T02:20:12.667Z,98927.09
2023-11-17T02:22:48.896Z,98924.59
2023-11-17T02:25:30.065Z,98919.81
2023-11-17T02:28:11.739Z,98913.91
2023-11-17T02:30:43.058Z,98906.16
2023-11-17T02:33:12.524Z,98904.13
2023-11-17T02:35:45.074Z,98904.75
2023-11-17T02:38:14.596Z,98896.69
2023-11-17T02:40:47.475Z,98900.25
2023-11-17T02:43:24.345Z,98894.47
2023-11-17T02:45:55.367Z,98878.22
2023-11-17T02:48:29.980Z,98886.84
2023-11-17T02:51:19.936Z,98891.88
2023-11-17T02:53:51.304Z,98882.78
2023-11-17T02:56:22.841Z,98879.72
2023-11-17T02:58:55.887Z,98875.41
2023-11-17T03:01:27.265Z,98874.66
2023-11-17T03:03:57.199Z,98877.06
2023-11-17T03:06:26.723Z,98872.75
2023-11-17T03:08:56.682Z,98874.00
2023-11-17T03:11:26.220Z,98871.28
2023-11-17T03:13:56.564Z,98868.72
2023-11-17T03:16:27.725Z,98871.06
2023-11-17T03:18:57.056Z,98863.00
2023-11-17T03:21:26.618Z,98863.28
2023-11-17T03:23:55.510Z,98844.44
2023-11-17T03:26:24.776Z,98842.94
2023-11-17T03:28:53.899Z,98840.44
2023-11-17T03:31:23.077Z,98833.69
2023-11-17T03:33:54.184Z,98837.59
2023-11-17T03:36:25.818Z,98841.87
2023-11-17T03:38:56.816Z,98842.84
2023-11-17T03:41:26.196Z,98826.81
2023-11-17T03:43:55.682Z,98817.66
2023-11-17T03:46:26.697Z,98811.03
2023-11-17T03:48:57.359Z,98801.22
2023-11-17T03:51:26.445Z,98798.94
2023-11-17T03:53:55.959Z,98806.72
2023-11-17T03:56:24.829Z,98797.94
2023-11-17T03:58:53.960Z,98795.56
2023-11-17T04:01:23.472Z,98801.59
2023-11-17T04:03:52.940Z,98799.81
2023-11-17T04:06:23.687Z,98793.94
2023-11-17T04:08:53.778Z,98790.19
2023-11-17T04:11:23.768Z,98790.47
2023-11-17T04:13:53.862Z,98795.75
2023-11-17T04:16:23.215Z,98800.12
2023-11-17T04:18:52.940Z,98796.87
2023-11-17T04:21:23.936Z,98800.53
2023-11-17T04:23:53.680Z,98797.50
2023-11-17T04:26:22.723Z,98799.81
2023-11-17T04:28:51.992Z,98792.22
2023-11-17T04:31:21.474Z,98798.09
2023-11-17T04:33:50.913Z,98788.84
2023-11-17T04:36:22.578Z,98794.16
2023-11-17T04:38:53.695Z,98799.50
2023-11-17T04:41:24.501Z,98805.94
2023-11-17T04:43:54.036Z,98799.47
2023-11-17T04:46:23.143Z,98796.91
2023-11-17T04:48:52.470Z,98799.97
2023-11-17T04:51:21.906Z,98797.44
2023-11-17T04:53:51.241Z,98801.78
2023-11-17T04:56:21.867Z,98796.37
2023-11-17T04:58:51.258Z,98800.69
2023-11-17T05:01:20.639Z,98793.31
2023-11-17T05:03:49.722Z,98792.25
2023-11-17T05:06:24.033Z,98788.03
2023-11-17T05:08:53.204Z,98789.28
2023-11-17T05:11:25.074Z,98794.63
2023-11-17T05:13:54.259Z,98789.56
2023-11-17T05:16:24.007Z,98797.47
2023-11-17T05:18:53.418Z,98796.25
2023-11-17T05:21:22.828Z,98792.31
2023-11-17T05:23:51.890Z,98792.38
2023-11-17T05:26:20.997Z,98786.31
2023-11-17T05:28:51.568Z,98794.94
2023-11-17T05:31:22.061Z,98808.00
2023-11-17T05:33:50.936Z,98803.44
2023-11-17T05:36:20.343Z,98798.38
2023-11-17T05:38:50.180Z,98805.22
2023-11-17T05:41:23.364Z,98803.31
2023-11-17T05:43:54.804Z,98817.69
2023-11-17T05:46:24.196Z,98812.00
2023-11-17T05:48:56.117Z,98811.87
2023-11-17T05:51:25.715Z,98812.75
2023-11-17T05:53:54.835Z,98811.94
2023-11-17T05:56:23.611Z,98811.22
2023-11-17T05:58:54.196Z,98808.81
2023-11-17T06:01:24.934Z,98804.59
2023-11-17T06:03:54.887Z,98811.78
2023-11-17T06:06:24.662Z,98815.41
2023-11-17T06:08:54.272Z,98813.16
2023-11-17T06:11:27.153Z,98813.13
2023-11-17T06:13:58.063Z,98815.00
2023-11-17T06:16:27.858Z,98815.00
2023-11-17T06:18:58.104Z,98813.31
2023-11-17T06:21:27.419Z,98814.72
2023-11-17T06:24:00.230Z,98816.53
2023-11-17T06:26:29.472Z,98816.00
2023-11-17T06:29:02.671Z,98822.16
2023-11-17T06:31:34.095Z,98820.63
2023-11-17T06:34:03.243Z,98815.03
2023-11-17T06:36:32.609Z,98821.28
2023-11-17T06:39:01.537Z,98826.06
2023-11-17T06:41:32.426Z,98820.63
2023-11-17T06:44:02.976Z,98821.75
2023-11-17T06:46:32.308Z,98812.13
2023-11-17T06:49:03.236Z,98814.63
2023-11-17T06:51:32.987Z,98822.88
2023-11-17T06:54:05.348Z,98822.31
2023-11-17T06:56:34.482Z,98826.03
2023-11-17T06:59:09.489Z,98828.56
2023-11-17T07:01:39.834Z,98827.34
2023-11-17T07:04:10.103Z,98826.78
2023-11-17T07:06:40.868Z,98837.94
2023-11-17T07:09:17.847Z,98830.69
2023-11-17T07:11:49.390Z,98827.75
2023-11-17T07:14:21.190Z,98825.25
2023-11-17T07:16:50.555Z,98820.37
2023-11-17T07:19:21.427Z,98822.59
2023-11-17T07:21:51.988Z,98820.22
2023-11-17T07:24:24.839Z,98817.84
2023-11-17T07:26:59.397Z,98817.25
2023-11-17T07:29:33.251Z,98821.88
2023-11-17T07:32:02.415Z,98818.97
2023-11-17T07:34:32.015Z,98825.53
2023-11-17T07:37:02.197Z,98822.72
2023-11-17T07:39:31.519Z,98822.84
2023-11-17T07:41:59.223Z,98830.44
2023-11-17T07:44:32.237Z,98820.56
2023-11-17T07:47:05.913Z,98818.50
2023-11-17T07:49:36.094Z,98823.16
2023-11-17T07:52:05.710Z,98827.84
2023-11-17T07:54:34.916Z,98831.25
2023-11-17T07:57:04.288Z,98830.44
2023-11-17T07:59:34.984Z,98828.75
2023-11-17T08:02:07.359Z,98833.44
2023-11-17T08:04:37.714Z,98843.72
2023-11-17T08:07:07.389Z,98839.66
2023-11-17T08:09:38.532Z,98839.16
2023-11-17T08:12:08.909Z,98836.94
2023-11-17T08:14:39.556Z,98839.53
2023-11-17T08:17:09.174Z,98834.34
2023-11-17T08:19:40.920Z,98847.56
2023-11-17T08:22:30.805Z,98838.31
2023-11-17T08:25:00.249Z,98843.41
2023-11-17T08:27:29.402Z,98844.41
2023-11-17T08:29:59.869Z,98845.19
2023-11-17T08:32:29.175Z,98850.41
2023-11-17T08:34:58.387Z,98857.87
2023-11-17T08:37:27.314Z,98866.44
2023-11-17T08:39:56.681Z,98860.81
2023-11-17T08:42:25.618Z,98871.19
2023-11-17T08:44:54.434Z,98875.69
2023-11-17T08:47:26.416Z,98883.34
2023-11-17T08:49:55.720Z,98892.22
2023-11-17T08:52:25.458Z,98887.38
2023-11-17T08:55:01.602Z,98890.28
2023-11-17T08:57:32.276Z,98886.38
2023-11-17T09:00:02.250Z,98891.66
2023-11-17T09:02:32.927Z,98892.34
2023-11-17T09:05:02.146Z,98901.44
2023-11-17T09:07:31.435Z,98911.34
2023-11-17T09:10:00.385Z,98915.03
2023-11-17T09:12:33.134Z,98920.97
2023-11-17T09:15:02.450Z,98928.81
2023-11-17T09:17:36.007Z,98928.66
2023-11-17T09:20:09.681Z,98932.22
2023-11-17T09:22:43.109Z,98935.53
2023-11-17T09:25:17.024Z,98939.38
2023-11-17T09:27:49.650Z,98943.47
2023-11-17T09:30:19.203Z,98949.78
2023-11-17T09:32:51.436Z,98941.09
2023-11-17T09:35:23.061Z,98951.59
2023-11-17T09:37:54.696Z,98946.84
2023-11-17T09:40:25.826Z,98955.75
2023-11-17T09:42:56.535Z,98950.78
2023-11-17T09:45:34.130Z,98953.97
2023-11-17T09:48:04.550Z,98950.59
2023-11-17T09:50:33.890Z,98944.78
2023-11-17T09:53:03.070Z,98942.19
2023-11-17T09:55:37.793Z,98945.22
2023-11-17T09:58:11.426Z,98938.56
2023-11-17T10:00:44.428Z,98940.53
2023-11-17T10:03:15.931Z,98940.00
2023-11-17T10:05:45.180Z,98937.44
2023-11-17T10:08:21.645Z,98938.12
2023-11-17T10:10:51.138Z,98935.94
2023-11-17T10:13:21.969Z,98950.25
2023-11-17T10:15:55.821Z,98946.06
2023-11-17T10:18:31.262Z,98939.75
2023-11-17T10:21:00.632Z,98940.59
2023-11-17T10:23:34.095Z,98936.41
2023-11-17T10:26:03.580Z,98933.03
2023-11-17T10:28:32.771Z,98943.19
2023-11-17T10:31:07.006Z,98937.34
2023-11-17T10:33:41.669Z,98942.00
2023-11-17T10:36:13.617Z,98930.75
2023-11-17T10:38:46.622Z,98935.63
2023-11-17T10:41:18.900Z,98927.97
2023-11-17T10:43:51.128Z,98927.81
2023-11-17T10:46:23.571Z,98930.62
2023-11-17T10:49:00.191Z,98937.56
2023-11-17T10:51:32.032Z,98937.44
2023-11-17T10:54:05.622Z,98929.19
2023-11-17T10:56:35.553Z,98930.84
2023-11-17T10:59:06.737Z,98928.16
2023-11-17T11:01:38.898Z,98922.72
2023-11-17T11:04:11.362Z,98933.50
2023-11-17T11:06:43.052Z,98932.34
2023-11-17T11:09:18.804Z,98935.97
2023-11-17T11:11:52.667Z,98932.13
2023-11-17T11:14:22.219Z,98932.47
2023-11-17T11:16:52.693Z,98941.50
2023-11-17T11:19:26.597Z,98947.94
2023-11-17T11:22:02.998Z,98938.03
2023-11-17T11:24:37.952Z,98951.69
2023-11-17T11:27:10.935Z,98949.22
2023-11-17T11:29:44.308Z,98965.53
2023-11-17T11:32:15.389Z,98961.06
2023-11-17T11:34:46.163Z,98967.47
2023-11-17T11:37:15.719Z,98972.22
2023-11-17T11:39:47.029Z,98972.22
2023-11-17T11:42:17.446Z,98972.25
2023-11-17T11:44:48.771Z,98988.34
2023-11-17T11:47:23.413Z,98995.50
2023-11-17T11:49:55.952Z,99000.16
2023-11-17T11:52:34.966Z,98997.59
2023-11-17T11:55:08.308Z,98999.88
2023-11-17T11:57:37.355Z,98996.53
2023-11-17T12:00:18.421Z,98997.44
2023-11-17T12:02:55.210Z,98999.31
2023-11-17T12:05:30.560Z,99008.47
2023-11-17T12:08:03.122Z,99016.41
2023-11-17T12:10:40.269Z,99009.06
2023-11-17T12:13:10.195Z,99005.66
2023-11-17T12:15:47.634Z,99013.75
2023-11-17T12:18:18.947Z,99018.91
2023-11-17T12:20:49.606Z,99024.78
2023-11-17T12:23:19.156Z,99029.72
2023-11-17T12:25:48.400Z,99031.88
2023-11-17T12:28:18.627Z,99026.34
2023-11-17T12:30:48.524Z,99041.72
2023-11-17T12:33:18.723Z,99041.97
2023-11-17T12:35:49.664Z,99049.44
2023-11-17T12:38:23.686Z,99049.44
2023-11-17T12:41:06.715Z,99059.28
2023-11-17T12:43:36.463Z,99067.34
2023-11-17T12:46:09.358Z,99058.44
2023-11-17T12:48:41.056Z,99058.03
2023-11-17T12:51:17.169Z,99056.59
2023-11-17T12:53:51.404Z,99058.06
2023-11-17T12:56:22.305Z,99061.19
2023-11-17T12:58:51.820Z,99062.41
2023-11-17T13:01:22.221Z,99075.47
2023-11-17T13:04:03.837Z,99075.72
2023-11-17T13:06:34.710Z,99088.13
2023-11-17T13:09:11.303Z,99070.94
2023-11-17T13:11:44.204Z,99088.34
2023-11-17T13:14:22.051Z,99090.69
2023-11-17T13:16:52.010Z,99094.72
2023-11-17T13:19:22.189Z,99088.50
2023-11-17T13:21:55.076Z,99087.16
2023-11-17T13:24:24.622Z,99095.44
2023-11-17T13:26:54.011Z,99104.78
2023-11-17T13:29:24.142Z,99113.91
2023-11-17T13:32:03.107Z,99103.72
2023-11-17T13:34:34.473Z,99116.19
2023-11-17T13:37:08.280Z,99128.28
2023-11-17T13:39:38.147Z,99136.84
2023-11-17T13:42:12.142Z,99141.16
2023-11-17T13:44:42.298Z,99135.28
2023-11-17T13:47:15.100Z,99149.50
2023-11-17T13:49:45.085Z,99148.50
2023-11-17T13:52:19.058Z,99151.34
2023-11-17T13:54:50.338Z,99158.41
2023-11-17T13:57:18.624Z,99159.88
2023-11-17T13:59:50.856Z,99155.94
2023-11-17T14:02:22.602Z,99167.97
2023-11-17T14:04:55.917Z,99167.56
2023-11-17T14:07:26.215Z,99167.44
2023-11-17T14:09:56.755Z,99171.31
2023-11-17T14:12:26.441Z,99172.19
2023-11-17T14:14:56.073Z,99185.31
2023-11-17T14:17:25.151Z,99186.16
2023-11-17T14:19:55.064Z,99196.94
2023-11-17T14:22:27.685Z,99191.91
2023-11-17T14:25:02.682Z,99201.56
2023-11-17T14:27:32.197Z,99189.56
2023-11-17T14:30:01.624Z,99210.16
2023-11-17T14:32:35.796Z,99207.56
2023-11-17T14:35:06.598Z,99218.94
2023-11-17T14:37:39.713Z,99223.81
2023-11-17T14:40:12.174Z,99223.75
2023-11-17T14:42:41.149Z,99232.09
2023-11-17T14:45:12.552Z,99237.09
2023-11-17T14:47:49.356Z,99233.22
2023-11-17T14:50:19.073Z,99232.88
2023-11-17T14:52:54.454Z,99242.19
2023-11-17T14:55:26.443Z,99249.00
2023-11-17T14:57:55.569Z,99254.66
2023-11-17T15:00:40.185Z,99245.34
2023-11-17T15:03:09.561Z,99259.94
2023-11-17T15:05:39.863Z,99267.84
2023-11-17T15:08:11.290Z,99266.72
2023-11-17T15:10:43.681Z,99270.59
2023-11-17T15:13:14.057Z,99269.97
2023-11-17T15:15:43.848Z,99280.56
2023-11-17T15:18:17.411Z,99285.50
2023-11-17T15:20:48.379Z,99289.72
2023-11-17T15:23:17.388Z,99294.16
2023-11-17T15:25:48.042Z,99292.44
2023-11-17T15:28:21.574Z,99287.59
2023-11-17T15:30:55.852Z,99294.03
2023-11-17T15:33:26.729Z,99291.44
2023-11-17T15:35:57.760Z,99285.16
2023-11-17T15:38:27.830Z,99288.69
2023-11-17T15:40:59.530Z,99297.97
2023-11-17T15:43:33.997Z,99305.28
2023-11-17T15:46:04.216Z,99311.78
2023-11-17T15:48:35.710Z,99306.00
2023-11-17T15:51:07.850Z,99314.03
2023-11-17T15:53:36.992Z,99320.25
2023-11-17T15:56:10.341Z,99320.34
2023-11-17T15:58:39.749Z,99316.94
2023-11-17T16:01:10.361Z,99336.28
2023-11-17T16:03:40.813Z,99324.97
2023-11-17T16:06:11.757Z,99324.78
2023-11-17T16:08:41.742Z,99341.44
2023-11-17T16:11:13.038Z,99339.56
2023-11-17T16:13:42.872Z,99350.72
2023-11-17T16:16:15.551Z,99337.06
2023-11-17T16:18:45.315Z,99349.75
2023-11-17T16:21:14.981Z,99348.28
2023-11-17T16:23:45.382Z,99344.69
2023-11-17T16:26:16.137Z,99369.75
2023-11-17T16:28:45.815Z,99362.63
2023-11-17T16:31:17.455Z,99363.22
2023-11-17T16:33:48.670Z,99384.16
2023-11-17T16:36:19.571Z,99367.41
2023-11-17T16:38:50.892Z,99383.94
2023-11-17T16:41:22.279Z,99388.84
2023-11-17T16:43:52.598Z,99401.31
2023-11-17T16:46:22.696Z,99413.66
2023-11-17T16:48:53.133Z,99412.03
2023-11-17T16:51:22.811Z,99401.84
2023-11-17T16:53:52.474Z,99426.53
2023-11-17T16:56:22.806Z,99426.47
2023-11-17T16:58:51.818Z,99427.19
2023-11-17T17:01:21.314Z,99436.06
2023-11-17T17:03:50.260Z,99426.12
2023-11-17T17:06:20.231Z,99445.50
2023-11-17T17:08:55.660Z,99436.66
2023-11-17T17:11:26.119Z,99442.88
2023-11-17T17:14:02.977Z,99446.16
2023-11-17T17:16:42.394Z,99441.47
2023-11-17T17:19:12.992Z,99443.66
2023-11-17T17:21:42.422Z,99451.91
2023-11-17T17:24:18.839Z,99461.19
2023-11-17T17:26:51.693Z,99454.25
2023-11-17T17:29:20.643Z,99463.16
2023-11-17T17:31:49.868Z,99463.34
2023-11-17T17:34:21.138Z,99476.25
2023-11-17T17:36:50.606Z,99476.88
2023-11-17T17:39:20.679Z,99464.78
2023-11-17T17:41:51.244Z,99473.53
2023-11-17T17:44:23.490Z,99478.06
2023-11-17T17:46:54.064Z,99478.78
2023-11-17T17:49:24.334Z,99477.28
2023-11-17T17:51:54.030Z,99473.00
2023-11-17T17:54:25.438Z,99487.94
2023-11-17T17:56:59.436Z,99488.44
2023-11-17T17:59:29.211Z,99493.59
2023-11-17T18:01:58.441Z,99493.88
2023-11-17T18:04:28.813Z,99502.50
2023-11-17T18:06:58.199Z,99498.69
2023-11-17T18:09:28.380Z,99508.81
2023-11-17T18:11:57.279Z,99502.19
2023-11-17T18:14:27.526Z,99512.03
2023-11-17T18:16:57.351Z,99519.41
2023-11-17T18:19:28.422Z,99526.09
2023-11-17T18:21:58.279Z,99521.94
2023-11-17T18:24:29.237Z,99518.16
2023-11-17T18:27:00.873Z,99528.97
2023-11-17T18:29:31.558Z,99520.50
2023-11-17T18:32:01.593Z,99530.00
2023-11-17T18:34:30.594Z,99525.47
2023-11-17T18:37:00.835Z,99516.06
2023-11-17T18:39:32.332Z,99517.69
2023-11-17T18:42:07.654Z,99523.22
2023-11-17T18:44:39.913Z,99536.00
2023-11-17T18:47:08.834Z,99529.31
2023-11-17T18:49:39.356Z,99546.94
2023-11-17T18:52:09.820Z,99546.63
2023-11-17T18:54:39.308Z,99548.31
2023-11-17T18:57:08.723Z,99554.69
2023-11-17T18:59:39.138Z,99566.81
2023-11-17T19:02:08.834Z,99557.63
2023-11-17T19:04:41.141Z,99558.41
2023-11-17T19:07:11.948Z,99573.31
2023-11-17T19:09:41.857Z,99581.13
2023-11-17T19:12:12.922Z,99572.66
2023-11-17T19:14:45.326Z,99564.75
2023-11-17T19:17:16.564Z,99560.88
2023-11-17T19:19:47.142Z,99562.12
2023-11-17T19:22:18.331Z,99565.03
2023-11-17T19:24:51.120Z,99567.13
2023-11-17T19:27:22.460Z,99576.38
2023-11-17T19:29:55.552Z,99567.63
2023-11-17T19:32:27.331Z,99581.81
2023-11-17T19:34:59.847Z,99595.47
2023-11-17T19:37:30.558Z,99582.56
2023-11-17T19:39:59.281Z,99579.25
2023-11-17T19:42:30.024Z,99586.25
2023-11-17T19:45:02.617Z,99590.34
2023-11-17T19:47:34.116Z,99594.94
2023-11-17T19:50:14.420Z,99602.06
2023-11-17T19:52:47.284Z,99609.78
2023-11-17T19:55:17.091Z,99616.31
2023-11-17T19:57:48.847Z,99607.13
2023-11-17T20:03:08.394Z,99609.28
2023-11-17T20:05:38.892Z,99602.41
2023-11-17T20:08:15.068Z,99612.25
2023-11-17T20:10:47.166Z,99622.00
2023-11-17T20:13:16.823Z,99620.25
2023-11-17T20:15:49.109Z,99621.06
2023-11-17T20:18:18.749Z,99615.66
2023-11-17T20:20:49.224Z,99610.06
2023-11-17T20:23:19.279Z,99607.38
2023-11-17T20:25:49.123Z,99617.53
2023-11-17T20:28:18.397Z,99605.66
2023-11-17T20:30:49.908Z,99616.59
2023-11-17T20:33:21.501Z,99612.03
2023-11-17T20:35:51.027Z,99630.75
2023-11-17T20:38:20.507Z,99630.13
2023-11-17T20:40:50.873Z,99632.25
2023-11-17T20:43:21.038Z,99632.41
2023-11-17T20:45:52.654Z,99626.28
2023-11-17T20:48:22.896Z,99625.66
2023-11-17T20:50:57.990Z,99617.19
2023-11-17T20:53:29.114Z,99629.03
2023-11-17T20:55:58.044Z,99628.34
2023-11-17T20:58:31.421Z,99649.13
2023-11-17T21:01:09.289Z,99640.53
2023-11-17T21:03:41.199Z,99646.78
2023-11-17T21:06:10.370Z,99657.87
2023-11-17T21:08:40.489Z,99657.75
2023-11-17T21:11:10.464Z,99653.25
2023-11-17T21:13:41.338Z,99662.97
2023-11-17T21:16:14.016Z,99653.53
2023-11-17T21:18:44.102Z,99660.22
2023-11-17T21:21:14.007Z,99667.03
2023-11-17T21:23:45.176Z,99671.38
2023-11-17T21:26:17.157Z,99678.72
2023-11-17T21:28:46.199Z,99675.84
2023-11-17T21:31:16.948Z,99677.91
2023-11-17T21:33:47.248Z,99688.44
2023-11-17T21:36:17.766Z,99682.03
2023-11-17T21:38:48.618Z,99681.03
2023-11-17T21:41:17.757Z,99687.25
2023-11-17T21:43:46.875Z,99678.53
2023-11-17T21:46:19.163Z,99685.81
2023-11-17T21:48:48.677Z,99689.25
2023-11-17T21:51:18.392Z,99689.34
2023-11-17T21:53:47.106Z,99684.78
2023-11-17T21:56:21.870Z,99709.09
2023-11-17T21:58:51.571Z,99711.81
2023-11-17T22:01:22.261Z,99723.00
2023-11-17T22:03:51.896Z,99727.72
2023-11-17T22:06:24.231Z,99742.00
2023-11-17T22:08:54.407Z,99738.94
2023-11-17T22:11:23.678Z,99750.91
2023-11-17T22:13:52.711Z,99732.47
2023-11-17T22:16:23.401Z,99732.59
2023-11-17T22:18:53.936Z,99729.50
2023-11-17T22:21:23.283Z,99726.25
2023-11-17T22:23:53.057Z,99720.88
2023-11-17T22:26:27.007Z,99725.41
2023-11-17T22:28:56.276Z,99735.47
2023-11-17T22:31:27.016Z,99731.75
2023-11-17T22:34:00.368Z,99723.09
2023-11-17T22:36:29.206Z,99735.94
2023-11-17T22:38:58.418Z,99737.62
2023-11-17T22:41:27.592Z,99736.56
2023-11-17T22:43:57.193Z,99745.38
2023-11-17T22:46:29.242Z,99743.66
2023-11-17T22:48:57.957Z,99751.66
2023-11-17T22:51:27.253Z,99745.75
2023-11-17T22:53:57.252Z,99736.28
2023-11-17T22:56:26.667Z,99734.78
2023-11-17T22:58:56.370Z,99739.22
2023-11-17T23:01:29.422Z,99758.31
2023-11-17T23:04:00.408Z,99758.47
2023-11-17T23:06:32.378Z,99775.25
2023-11-17T23:09:02.641Z,99779.75
2023-11-17T23:11:31.487Z,99783.84
2023-11-17T23:14:00.250Z,99785.00
2023-11-17T23:16:30.405Z,99791.19
2023-11-17T23:19:08.068Z,99792.66
2023-11-17T23:21:45.345Z,99801.09
2023-11-17T23:24:14.368Z,99805.41
2023-11-17T23:26:43.478Z,99808.75
2023-11-17T23:29:12.363Z,99813.53
2023-11-17T23:31:41.793Z,99817.84
2023-11-17T23:34:13.805Z,99823.09
2023-11-17T23:36:42.591Z,99818.41
2023-11-17T23:39:15.443Z,99819.88
2023-11-17T23:41:47.011Z,99822.66
2023-11-17T23:44:16.657Z,99833.56
2023-11-17T23:46:46.006Z,99835.66
2023-11-17T23:49:17.400Z,99844.12
2023-11-17T23:51:47.561Z,99842.66
2023-11-17T23:54:16.884Z,99853.84
2023-11-17T23:56:46.335Z,99851.66
2023-11-17T23:59:15.410Z,99852.34
